Terminal Aerodrome Forecast
Issued by NWS Tampa Bay Area, FL

Home | Current Version | Previous Version | Text Only | Print | Product List | Glossary On
Versions: 1 2 3 4 5 6 7 8 9 10 11 12 13 14
000
FTUS42 KTBW 261100
TAFFMY
TAF
KFMY 261130Z 2612/2712 04007KT P6SM SCT030
     FM261700 07008KT P6SM BKN045
     FM270200 05004KT P6SM SCT025 BKN045
     FM271000 05005KT 6SM BR SCT006 SCT020=

USA.gov is the U.S. government's official web portal to all federal, state and local government web resources and services.